sensor_id;sensor_type;location;lat;lon;timestamp;temperature;humidity
16700;DHT22;8466;52.286;21.124;2024-01-27T00:00:54;3.10;99.90
16700;DHT22;8466;52.286;21.124;2024-01-27T00:03:25;3.40;99.90
16700;DHT22;8466;52.286;21.124;2024-01-27T00:06:05;3.60;99.90
16700;DHT22;8466;52.286;21.124;2024-01-27T00:08:36;3.70;99.90
16700;DHT22;8466;52.286;21.124;2024-01-27T00:11:11;3.80;99.90
16700;DHT22;8466;52.286;21.124;2024-01-27T00:13:40;4.00;99.90
16700;DHT22;8466;52.286;21.124;2024-01-27T00:16:09;4.10;99.90
16700;DHT22;8466;52.286;21.124;2024-01-27T00:18:39;4.20;99.90
16700;DHT22;8466;52.286;21.124;2024-01-27T00:21:09;4.30;99.90
16700;DHT22;8466;52.286;21.124;2024-01-27T00:23:37;4.40;99.90
16700;DHT22;8466;52.286;21.124;2024-01-27T00:26:06;4.50;99.90
16700;DHT22;8466;52.286;21.124;2024-01-27T00:28:35;4.50;99.90
16700;DHT22;8466;52.286;21.124;2024-01-27T00:31:03;4.60;99.90
16700;DHT22;8466;52.286;21.124;2024-01-27T00:33:32;4.60;99.90
16700;DHT22;8466;52.286;21.124;2024-01-27T00:36:04;4.70;99.90
16700;DHT22;8466;52.286;21.124;2024-01-27T00:38:34;4.70;99.90
16700;DHT22;8466;52.286;21.124;2024-01-27T00:41:06;4.80;99.90
16700;DHT22;8466;52.286;21.124;2024-01-27T00:43:37;4.70;99.90
16700;DHT22;8466;52.286;21.124;2024-01-27T00:46:05;4.70;99.90
16700;DHT22;8466;52.286;21.124;2024-01-27T00:48:34;4.60;99.90
16700;DHT22;8466;52.286;21.124;2024-01-27T00:51:03;4.60;99.90
16700;DHT22;8466;52.286;21.124;2024-01-27T00:53:33;4.60;99.90
16700;DHT22;8466;52.286;21.124;2024-01-27T00:56:02;4.50;99.90
16700;DHT22;8466;52.286;21.124;2024-01-27T00:58:31;4.60;99.90
16700;DHT22;8466;52.286;21.124;2024-01-27T01:01:01;4.50;99.90
16700;DHT22;8466;52.286;21.124;2024-01-27T01:03:29;4.50;99.90
16700;DHT22;8466;52.286;21.124;2024-01-27T01:05:58;4.40;99.90
16700;DHT22;8466;52.286;21.124;2024-01-27T01:08:27;4.40;99.90
16700;DHT22;8466;52.286;21.124;2024-01-27T01:10:57;4.40;99.90
16700;DHT22;8466;52.286;21.124;2024-01-27T01:13:26;4.50;99.90
16700;DHT22;8466;52.286;21.124;2024-01-27T01:15:54;4.50;99.90
16700;DHT22;8466;52.286;21.124;2024-01-27T01:18:23;4.50;99.90
16700;DHT22;8466;52.286;21.124;2024-01-27T01:20:52;4.50;99.90
16700;DHT22;8466;52.286;21.124;2024-01-27T01:23:21;4.40;99.90
16700;DHT22;8466;52.286;21.124;2024-01-27T01:25:50;4.40;99.90
16700;DHT22;8466;52.286;21.124;2024-01-27T01:28:20;4.40;99.90
16700;DHT22;8466;52.286;21.124;2024-01-27T01:30:48;4.30;99.90
16700;DHT22;8466;52.286;21.124;2024-01-27T01:33:17;4.30;99.90
16700;DHT22;8466;52.286;21.124;2024-01-27T01:35:46;4.30;99.90
16700;DHT22;8466;52.286;21.124;2024-01-27T01:38:15;4.20;99.90
16700;DHT22;8466;52.286;21.124;2024-01-27T01:40:44;4.20;99.90
16700;DHT22;8466;52.286;21.124;2024-01-27T01:43:12;4.20;99.90
16700;DHT22;8466;52.286;21.124;2024-01-27T01:45:43;4.20;99.90
16700;DHT22;8466;52.286;21.124;2024-01-27T01:48:11;4.20;99.90
16700;DHT22;8466;52.286;21.124;2024-01-27T01:50:40;4.30;99.90
16700;DHT22;8466;52.286;21.124;2024-01-27T01:53:09;4.20;99.90
16700;DHT22;8466;52.286;21.124;2024-01-27T01:55:39;4.10;99.90
16700;DHT22;8466;52.286;21.124;2024-01-27T01:58:07;4.20;99.90
16700;DHT22;8466;52.286;21.124;2024-01-27T02:00:36;4.20;99.90
16700;DHT22;8466;52.286;21.124;2024-01-27T02:03:10;4.20;99.90
16700;DHT22;8466;52.286;21.124;2024-01-27T02:05:39;4.20;99.90
16700;DHT22;8466;52.286;21.124;2024-01-27T02:08:08;4.20;99.90
16700;DHT22;8466;52.286;21.124;2024-01-27T02:10:37;4.20;99.90
16700;DHT22;8466;52.286;21.124;2024-01-27T02:13:16;4.20;99.90
16700;DHT22;8466;52.286;21.124;2024-01-27T02:15:46;4.20;99.90
16700;DHT22;8466;52.286;21.124;2024-01-27T02:18:16;4.20;99.90
16700;DHT22;8466;52.286;21.124;2024-01-27T02:20:45;4.20;99.90
16700;DHT22;8466;52.286;21.124;2024-01-27T02:23:14;4.30;99.90
16700;DHT22;8466;52.286;21.124;2024-01-27T02:25:44;4.30;99.90
16700;DHT22;8466;52.286;21.124;2024-01-27T02:28:13;4.30;99.90
16700;DHT22;8466;52.286;21.124;2024-01-27T02:30:41;4.30;99.90
16700;DHT22;8466;52.286;21.124;2024-01-27T02:33:09;4.40;99.90
16700;DHT22;8466;52.286;21.124;2024-01-27T02:35:38;4.50;99.90
16700;DHT22;8466;52.286;21.124;2024-01-27T02:38:07;4.40;99.90
16700;DHT22;8466;52.286;21.124;2024-01-27T02:40:36;4.40;99.90
16700;DHT22;8466;52.286;21.124;2024-01-27T02:43:06;4.50;99.90
16700;DHT22;8466;52.286;21.124;2024-01-27T02:45:34;4.40;99.90
16700;DHT22;8466;52.286;21.124;2024-01-27T02:48:04;4.40;99.90
16700;DHT22;8466;52.286;21.124;2024-01-27T02:50:33;4.30;99.90
16700;DHT22;8466;52.286;21.124;2024-01-27T02:53:01;4.30;99.90
16700;DHT22;8466;52.286;21.124;2024-01-27T02:55:30;4.40;99.90
16700;DHT22;8466;52.286;21.124;2024-01-27T02:57:58;4.40;99.90
16700;DHT22;8466;52.286;21.124;2024-01-27T03:00:29;4.40;99.90
16700;DHT22;8466;52.286;21.124;2024-01-27T03:02:57;4.30;99.90
16700;DHT22;8466;52.286;21.124;2024-01-27T03:05:26;4.30;99.90
16700;DHT22;8466;52.286;21.124;2024-01-27T03:07:55;4.30;99.90
16700;DHT22;8466;52.286;21.124;2024-01-27T03:10:24;4.30;99.90
16700;DHT22;8466;52.286;21.124;2024-01-27T03:12:53;4.20;99.90
16700;DHT22;8466;52.286;21.124;2024-01-27T03:15:22;4.30;99.90
16700;DHT22;8466;52.286;21.124;2024-01-27T03:17:52;4.40;99.90
16700;DHT22;8466;52.286;21.124;2024-01-27T03:20:21;4.40;99.90
16700;DHT22;8466;52.286;21.124;2024-01-27T03:22:49;4.40;99.90
16700;DHT22;8466;52.286;21.124;2024-01-27T03:25:18;4.40;99.90
16700;DHT22;8466;52.286;21.124;2024-01-27T03:27:47;4.30;99.90
16700;DHT22;8466;52.286;21.124;2024-01-27T03:30:15;4.30;99.90
16700;DHT22;8466;52.286;21.124;2024-01-27T03:32:44;4.40;99.90
16700;DHT22;8466;52.286;21.124;2024-01-27T03:35:14;4.40;99.90
16700;DHT22;8466;52.286;21.124;2024-01-27T03:37:43;4.40;99.90
16700;DHT22;8466;52.286;21.124;2024-01-27T03:40:13;4.30;99.90
16700;DHT22;8466;52.286;21.124;2024-01-27T03:42:41;4.30;99.90
16700;DHT22;8466;52.286;21.124;2024-01-27T03:45:10;4.30;99.90
16700;DHT22;8466;52.286;21.124;2024-01-27T03:47:39;4.30;99.90
16700;DHT22;8466;52.286;21.124;2024-01-27T03:50:08;4.30;99.90
16700;DHT22;8466;52.286;21.124;2024-01-27T03:52:39;4.30;99.90
16700;DHT22;8466;52.286;21.124;2024-01-27T03:55:08;4.30;99.90
16700;DHT22;8466;52.286;21.124;2024-01-27T03:57:37;4.40;99.90
16700;DHT22;8466;52.286;21.124;2024-01-27T04:00:07;4.40;99.90
16700;DHT22;8466;52.286;21.124;2024-01-27T04:02:36;4.40;99.90
16700;DHT22;8466;52.286;21.124;2024-01-27T04:05:05;4.40;99.90
16700;DHT22;8466;52.286;21.124;2024-01-27T04:07:34;4.40;99.90
16700;DHT22;8466;52.286;21.124;2024-01-27T04:10:05;4.40;99.90
16700;DHT22;8466;52.286;21.124;2024-01-27T04:12:34;4.50;99.90
16700;DHT22;8466;52.286;21.124;2024-01-27T04:15:03;4.50;99.90
16700;DHT22;8466;52.286;21.124;2024-01-27T04:17:32;4.40;99.90
16700;DHT22;8466;52.286;21.124;2024-01-27T04:20:00;4.40;99.90
16700;DHT22;8466;52.286;21.124;2024-01-27T04:22:29;4.30;99.90
16700;DHT22;8466;52.286;21.124;2024-01-27T04:24:58;4.30;99.90
16700;DHT22;8466;52.286;21.124;2024-01-27T04:27:28;4.30;99.90
16700;DHT22;8466;52.286;21.124;2024-01-27T04:29:58;4.30;99.90
16700;DHT22;8466;52.286;21.124;2024-01-27T04:32:26;4.30;99.90
16700;DHT22;8466;52.286;21.124;2024-01-27T04:34:55;4.30;99.90
16700;DHT22;8466;52.286;21.124;2024-01-27T04:37:24;4.30;99.90
16700;DHT22;8466;52.286;21.124;2024-01-27T04:39:52;4.20;99.90
16700;DHT22;8466;52.286;21.124;2024-01-27T04:42:21;4.30;99.90
16700;DHT22;8466;52.286;21.124;2024-01-27T04:44:52;4.40;99.90
16700;DHT22;8466;52.286;21.124;2024-01-27T04:47:21;4.30;99.90
16700;DHT22;8466;52.286;21.124;2024-01-27T04:49:50;4.30;99.90
16700;DHT22;8466;52.286;21.124;2024-01-27T04:52:19;4.40;99.90
16700;DHT22;8466;52.286;21.124;2024-01-27T04:54:48;4.30;99.90
16700;DHT22;8466;52.286;21.124;2024-01-27T04:57:17;4.30;99.90
16700;DHT22;8466;52.286;21.124;2024-01-27T04:59:45;4.30;99.90
16700;DHT22;8466;52.286;21.124;2024-01-27T05:02:16;4.40;99.90
16700;DHT22;8466;52.286;21.124;2024-01-27T05:04:44;4.40;99.90
16700;DHT22;8466;52.286;21.124;2024-01-27T05:07:13;4.30;99.90
16700;DHT22;8466;52.286;21.124;2024-01-27T05:09:42;4.30;99.90
16700;DHT22;8466;52.286;21.124;2024-01-27T05:12:11;4.30;99.90
16700;DHT22;8466;52.286;21.124;2024-01-27T05:14:43;4.30;99.90
16700;DHT22;8466;52.286;21.124;2024-01-27T05:17:12;4.30;99.90
16700;DHT22;8466;52.286;21.124;2024-01-27T05:19:42;4.30;99.90
16700;DHT22;8466;52.286;21.124;2024-01-27T05:22:11;4.40;99.90
16700;DHT22;8466;52.286;21.124;2024-01-27T05:24:40;4.30;99.90
16700;DHT22;8466;52.286;21.124;2024-01-27T05:27:08;4.30;99.90
16700;DHT22;8466;52.286;21.124;2024-01-27T05:29:37;4.20;99.90
16700;DHT22;8466;52.286;21.124;2024-01-27T05:32:06;4.20;99.90
16700;DHT22;8466;52.286;21.124;2024-01-27T05:34:35;4.10;99.90
16700;DHT22;8466;52.286;21.124;2024-01-27T05:37:05;4.10;99.90
16700;DHT22;8466;52.286;21.124;2024-01-27T05:39:34;4.10;99.90
16700;DHT22;8466;52.286;21.124;2024-01-27T05:42:04;4.10;99.90
16700;DHT22;8466;52.286;21.124;2024-01-27T05:44:32;4.10;99.90
16700;DHT22;8466;52.286;21.124;2024-01-27T05:47:00;4.00;99.90
16700;DHT22;8466;52.286;21.124;2024-01-27T05:49:29;4.00;99.90
16700;DHT22;8466;52.286;21.124;2024-01-27T05:51:58;4.00;99.90
16700;DHT22;8466;52.286;21.124;2024-01-27T05:54:28;3.90;99.90
16700;DHT22;8466;52.286;21.124;2024-01-27T05:56:57;3.90;99.90
16700;DHT22;8466;52.286;21.124;2024-01-27T05:59:26;3.90;99.90
16700;DHT22;8466;52.286;21.124;2024-01-27T06:01:54;3.80;99.90
16700;DHT22;8466;52.286;21.124;2024-01-27T06:04:24;3.90;99.90
16700;DHT22;8466;52.286;21.124;2024-01-27T06:06:53;3.90;99.90
16700;DHT22;8466;52.286;21.124;2024-01-27T06:09:22;3.90;99.90
16700;DHT22;8466;52.286;21.124;2024-01-27T06:11:52;3.90;99.90
16700;DHT22;8466;52.286;21.124;2024-01-27T06:14:21;3.90;99.90
16700;DHT22;8466;52.286;21.124;2024-01-27T06:16:50;3.90;99.90
16700;DHT22;8466;52.286;21.124;2024-01-27T06:19:20;3.80;99.90
16700;DHT22;8466;52.286;21.124;2024-01-27T06:21:49;3.80;99.90
16700;DHT22;8466;52.286;21.124;2024-01-27T06:24:17;3.80;99.90
16700;DHT22;8466;52.286;21.124;2024-01-27T06:26:46;3.80;99.90
16700;DHT22;8466;52.286;21.124;2024-01-27T06:29:16;3.80;99.90
16700;DHT22;8466;52.286;21.124;2024-01-27T06:31:46;3.80;99.90
16700;DHT22;8466;52.286;21.124;2024-01-27T06:34:15;3.80;99.90
16700;DHT22;8466;52.286;21.124;2024-01-27T06:36:43;3.80;99.90
16700;DHT22;8466;52.286;21.124;2024-01-27T06:39:12;3.70;99.90
16700;DHT22;8466;52.286;21.124;2024-01-27T06:41:41;3.70;99.90
16700;DHT22;8466;52.286;21.124;2024-01-27T06:44:09;3.70;99.90
16700;DHT22;8466;52.286;21.124;2024-01-27T06:46:39;3.70;99.90
16700;DHT22;8466;52.286;21.124;2024-01-27T06:49:08;3.70;99.90
16700;DHT22;8466;52.286;21.124;2024-01-27T06:51:37;3.70;99.90
16700;DHT22;8466;52.286;21.124;2024-01-27T06:54:06;3.70;99.90
16700;DHT22;8466;52.286;21.124;2024-01-27T06:56:35;3.70;99.90
16700;DHT22;8466;52.286;21.124;2024-01-27T06:59:04;3.70;99.90
16700;DHT22;8466;52.286;21.124;2024-01-27T07:01:32;3.70;99.90
16700;DHT22;8466;52.286;21.124;2024-01-27T07:04:03;3.60;99.90
16700;DHT22;8466;52.286;21.124;2024-01-27T07:06:32;3.70;99.90
16700;DHT22;8466;52.286;21.124;2024-01-27T07:09:01;3.70;99.90
16700;DHT22;8466;52.286;21.124;2024-01-27T07:11:30;3.60;99.90
16700;DHT22;8466;52.286;21.124;2024-01-27T07:13:58;3.60;99.90
16700;DHT22;8466;52.286;21.124;2024-01-27T07:16:27;3.60;99.90
16700;DHT22;8466;52.286;21.124;2024-01-27T07:18:56;3.60;99.90
16700;DHT22;8466;52.286;21.124;2024-01-27T07:21:26;3.60;99.90
16700;DHT22;8466;52.286;21.124;2024-01-27T07:23:56;3.70;99.90
16700;DHT22;8466;52.286;21.124;2024-01-27T07:26:24;3.60;99.90
16700;DHT22;8466;52.286;21.124;2024-01-27T07:28:53;3.60;99.90
16700;DHT22;8466;52.286;21.124;2024-01-27T07:31:22;3.70;99.90
16700;DHT22;8466;52.286;21.124;2024-01-27T07:33:53;3.70;99.90
16700;DHT22;8466;52.286;21.124;2024-01-27T07:36:22;3.60;99.90
16700;DHT22;8466;52.286;21.124;2024-01-27T07:38:54;3.60;99.90
16700;DHT22;8466;52.286;21.124;2024-01-27T07:41:22;3.70;99.90
16700;DHT22;8466;52.286;21.124;2024-01-27T07:43:54;3.70;99.90
16700;DHT22;8466;52.286;21.124;2024-01-27T07:46:23;3.80;99.90
16700;DHT22;8466;52.286;21.124;2024-01-27T07:48:51;3.80;99.90
16700;DHT22;8466;52.286;21.124;2024-01-27T07:51:20;3.80;99.90
16700;DHT22;8466;52.286;21.124;2024-01-27T07:53:50;3.80;99.90
16700;DHT22;8466;52.286;21.124;2024-01-27T07:56:21;3.90;99.90
16700;DHT22;8466;52.286;21.124;2024-01-27T07:58:49;3.90;99.90
16700;DHT22;8466;52.286;21.124;2024-01-27T08:04:06;3.90;99.90
16700;DHT22;8466;52.286;21.124;2024-01-27T08:06:46;4.00;99.90
16700;DHT22;8466;52.286;21.124;2024-01-27T08:09:15;4.10;99.90
16700;DHT22;8466;52.286;21.124;2024-01-27T08:11:46;4.10;99.90
16700;DHT22;8466;52.286;21.124;2024-01-27T08:14:19;4.10;99.90
16700;DHT22;8466;52.286;21.124;2024-01-27T08:16:48;4.10;99.90
16700;DHT22;8466;52.286;21.124;2024-01-27T08:19:17;4.10;99.90
16700;DHT22;8466;52.286;21.124;2024-01-27T08:21:48;4.10;99.90
16700;DHT22;8466;52.286;21.124;2024-01-27T08:24:17;4.10;99.90
16700;DHT22;8466;52.286;21.124;2024-01-27T08:26:47;4.10;99.90
16700;DHT22;8466;52.286;21.124;2024-01-27T08:29:15;4.10;99.90
16700;DHT22;8466;52.286;21.124;2024-01-27T08:31:44;4.10;99.90
16700;DHT22;8466;52.286;21.124;2024-01-27T08:34:13;4.10;99.90
16700;DHT22;8466;52.286;21.124;2024-01-27T08:36:42;4.20;99.90
16700;DHT22;8466;52.286;21.124;2024-01-27T08:39:11;4.10;99.90
16700;DHT22;8466;52.286;21.124;2024-01-27T08:41:40;4.20;99.90
16700;DHT22;8466;52.286;21.124;2024-01-27T08:44:10;4.20;99.90
16700;DHT22;8466;52.286;21.124;2024-01-27T08:46:39;4.20;99.90
16700;DHT22;8466;52.286;21.124;2024-01-27T08:49:08;4.20;99.90
16700;DHT22;8466;52.286;21.124;2024-01-27T08:51:37;4.20;99.90
16700;DHT22;8466;52.286;21.124;2024-01-27T08:54:05;4.20;99.90
16700;DHT22;8466;52.286;21.124;2024-01-27T08:56:39;4.20;99.90
16700;DHT22;8466;52.286;21.124;2024-01-27T08:59:09;4.30;99.90
16700;DHT22;8466;52.286;21.124;2024-01-27T09:01:38;4.30;99.90
16700;DHT22;8466;52.286;21.124;2024-01-27T09:04:06;4.30;99.90
16700;DHT22;8466;52.286;21.124;2024-01-27T09:06:35;4.30;99.90
16700;DHT22;8466;52.286;21.124;2024-01-27T09:09:04;4.40;99.90
16700;DHT22;8466;52.286;21.124;2024-01-27T09:11:33;4.40;99.90
16700;DHT22;8466;52.286;21.124;2024-01-27T09:14:02;4.40;99.90
16700;DHT22;8466;52.286;21.124;2024-01-27T09:16:34;4.40;99.90
16700;DHT22;8466;52.286;21.124;2024-01-27T09:19:02;4.30;99.90
16700;DHT22;8466;52.286;21.124;2024-01-27T09:21:31;4.40;99.90
16700;DHT22;8466;52.286;21.124;2024-01-27T09:24:00;4.40;99.90
16700;DHT22;8466;52.286;21.124;2024-01-27T09:26:29;4.40;99.90
16700;DHT22;8466;52.286;21.124;2024-01-27T09:28:58;4.40;99.90
16700;DHT22;8466;52.286;21.124;2024-01-27T09:31:27;4.40;99.90
16700;DHT22;8466;52.286;21.124;2024-01-27T09:33:57;4.40;99.90
16700;DHT22;8466;52.286;21.124;2024-01-27T09:36:26;4.40;99.90
16700;DHT22;8466;52.286;21.124;2024-01-27T09:38:54;4.40;99.90
16700;DHT22;8466;52.286;21.124;2024-01-27T09:41:23;4.40;99.90
16700;DHT22;8466;52.286;21.124;2024-01-27T09:43:54;4.40;99.90
16700;DHT22;8466;52.286;21.124;2024-01-27T09:46:24;4.50;99.90
16700;DHT22;8466;52.286;21.124;2024-01-27T09:48:53;4.50;99.90
16700;DHT22;8466;52.286;21.124;2024-01-27T09:51:24;4.50;99.90
16700;DHT22;8466;52.286;21.124;2024-01-27T09:53:54;4.50;99.90
16700;DHT22;8466;52.286;21.124;2024-01-27T09:56:23;4.50;99.90
16700;DHT22;8466;52.286;21.124;2024-01-27T09:58:52;4.50;99.90
16700;DHT22;8466;52.286;21.124;2024-01-27T10:01:24;4.50;99.90
16700;DHT22;8466;52.286;21.124;2024-01-27T10:03:54;4.60;99.90
16700;DHT22;8466;52.286;21.124;2024-01-27T10:06:24;4.60;99.90
16700;DHT22;8466;52.286;21.124;2024-01-27T10:08:54;4.60;99.90
16700;DHT22;8466;52.286;21.124;2024-01-27T10:11:23;4.60;99.90
16700;DHT22;8466;52.286;21.124;2024-01-27T10:13:55;4.60;99.90
16700;DHT22;8466;52.286;21.124;2024-01-27T10:16:26;4.60;99.90
16700;DHT22;8466;52.286;21.124;2024-01-27T10:19:00;4.70;99.90
16700;DHT22;8466;52.286;21.124;2024-01-27T10:21:32;4.90;99.90
16700;DHT22;8466;52.286;21.124;2024-01-27T10:24:02;5.00;99.90
16700;DHT22;8466;52.286;21.124;2024-01-27T10:26:33;4.90;99.90
16700;DHT22;8466;52.286;21.124;2024-01-27T10:29:02;4.90;99.90
16700;DHT22;8466;52.286;21.124;2024-01-27T10:31:33;5.00;99.90
16700;DHT22;8466;52.286;21.124;2024-01-27T10:34:03;4.90;99.90
16700;DHT22;8466;52.286;21.124;2024-01-27T10:36:41;4.90;99.90
16700;DHT22;8466;52.286;21.124;2024-01-27T10:39:20;4.90;99.90
16700;DHT22;8466;52.286;21.124;2024-01-27T10:41:51;4.90;99.90
16700;DHT22;8466;52.286;21.124;2024-01-27T10:44:20;5.00;99.90
16700;DHT22;8466;52.286;21.124;2024-01-27T12:30:36;4.60;99.90
16700;DHT22;8466;52.286;21.124;2024-01-27T12:33:34;4.60;99.90
16700;DHT22;8466;52.286;21.124;2024-01-27T12:36:28;4.50;99.90
16700;DHT22;8466;52.286;21.124;2024-01-27T12:39:00;4.40;99.90
16700;DHT22;8466;52.286;21.124;2024-01-27T12:41:30;4.50;99.90
16700;DHT22;8466;52.286;21.124;2024-01-27T12:44:13;4.50;99.90
16700;DHT22;8466;52.286;21.124;2024-01-27T12:47:01;4.40;99.90
16700;DHT22;8466;52.286;21.124;2024-01-27T12:49:44;4.40;99.90
16700;DHT22;8466;52.286;21.124;2024-01-27T12:56:56;4.40;99.90
16700;DHT22;8466;52.286;21.124;2024-01-27T12:59:48;4.50;99.90
16700;DHT22;8466;52.286;21.124;2024-01-27T13:02:52;4.50;99.90
16700;DHT22;8466;52.286;21.124;2024-01-27T13:06:00;4.50;99.90
16700;DHT22;8466;52.286;21.124;2024-01-27T13:10:10;4.50;99.90
16700;DHT22;8466;52.286;21.124;2024-01-27T13:13:44;4.60;99.90
16700;DHT22;8466;52.286;21.124;2024-01-27T13:16:43;4.60;99.90
16700;DHT22;8466;52.286;21.124;2024-01-27T13:27:07;4.80;99.90
16700;DHT22;8466;52.286;21.124;2024-01-27T13:29:45;4.90;99.90
16700;DHT22;8466;52.286;21.124;2024-01-27T13:32:16;4.90;99.90
16700;DHT22;8466;52.286;21.124;2024-01-27T13:35:05;5.00;99.90
16700;DHT22;8466;52.286;21.124;2024-01-27T13:37:59;5.00;99.90
16700;DHT22;8466;52.286;21.124;2024-01-27T13:41:07;5.00;99.90
16700;DHT22;8466;52.286;21.124;2024-01-27T13:43:46;5.00;99.90
16700;DHT22;8466;52.286;21.124;2024-01-27T13:46:19;5.00;99.90
16700;DHT22;8466;52.286;21.124;2024-01-27T13:49:06;4.90;99.90
16700;DHT22;8466;52.286;21.124;2024-01-27T13:51:39;5.00;99.90
16700;DHT22;8466;52.286;21.124;2024-01-27T13:54:08;4.90;99.90
16700;DHT22;8466;52.286;21.124;2024-01-27T13:56:37;4.90;99.90
16700;DHT22;8466;52.286;21.124;2024-01-27T13:59:06;4.80;99.90
16700;DHT22;8466;52.286;21.124;2024-01-27T14:01:35;4.90;99.90
16700;DHT22;8466;52.286;21.124;2024-01-27T14:04:04;4.90;99.90
16700;DHT22;8466;52.286;21.124;2024-01-27T14:06:36;4.90;99.90
16700;DHT22;8466;52.286;21.124;2024-01-27T14:09:20;4.80;99.90
16700;DHT22;8466;52.286;21.124;2024-01-27T14:11:52;4.80;99.90
16700;DHT22;8466;52.286;21.124;2024-01-27T14:14:21;4.60;99.90
16700;DHT22;8466;52.286;21.124;2024-01-27T14:16:51;4.70;99.90
16700;DHT22;8466;52.286;21.124;2024-01-27T14:19:21;4.70;99.90
16700;DHT22;8466;52.286;21.124;2024-01-27T14:21:52;4.80;99.90
16700;DHT22;8466;52.286;21.124;2024-01-27T14:24:22;4.80;99.90
16700;DHT22;8466;52.286;21.124;2024-01-27T14:26:53;4.70;99.90
16700;DHT22;8466;52.286;21.124;2024-01-27T14:29:24;4.70;99.90
16700;DHT22;8466;52.286;21.124;2024-01-27T14:31:53;4.70;99.90
16700;DHT22;8466;52.286;21.124;2024-01-27T14:34:22;4.60;99.90
16700;DHT22;8466;52.286;21.124;2024-01-27T14:36:52;4.50;99.90
16700;DHT22;8466;52.286;21.124;2024-01-27T14:39:27;4.40;99.90
16700;DHT22;8466;52.286;21.124;2024-01-27T14:42:01;4.30;99.90
16700;DHT22;8466;52.286;21.124;2024-01-27T14:44:31;4.20;99.90
16700;DHT22;8466;52.286;21.124;2024-01-27T14:47:00;4.10;99.90
16700;DHT22;8466;52.286;21.124;2024-01-27T14:49:29;4.00;99.90
16700;DHT22;8466;52.286;21.124;2024-01-27T14:52:07;4.00;99.90
16700;DHT22;8466;52.286;21.124;2024-01-27T14:55:20;3.90;99.90
16700;DHT22;8466;52.286;21.124;2024-01-27T14:58:14;3.80;99.90
16700;DHT22;8466;52.286;21.124;2024-01-27T15:01:10;3.70;99.90
16700;DHT22;8466;52.286;21.124;2024-01-27T15:04:20;3.80;99.90
16700;DHT22;8466;52.286;21.124;2024-01-27T15:06:57;3.90;99.90
16700;DHT22;8466;52.286;21.124;2024-01-27T15:09:30;3.80;99.90
16700;DHT22;8466;52.286;21.124;2024-01-27T15:12:02;3.80;99.90
16700;DHT22;8466;52.286;21.124;2024-01-27T15:15:42;3.90;99.90
16700;DHT22;8466;52.286;21.124;2024-01-27T15:18:18;3.80;99.90
16700;DHT22;8466;52.286;21.124;2024-01-27T15:20:55;3.90;99.90
16700;DHT22;8466;52.286;21.124;2024-01-27T15:23:52;3.90;99.90
16700;DHT22;8466;52.286;21.124;2024-01-27T15:26:58;3.80;99.90
16700;DHT22;8466;52.286;21.124;2024-01-27T15:48:44;3.30;99.90
16700;DHT22;8466;52.286;21.124;2024-01-27T15:55:41;3.20;99.90
16700;DHT22;8466;52.286;21.124;2024-01-27T15:58:49;3.20;99.90
16700;DHT22;8466;52.286;21.124;2024-01-27T16:01:51;3.00;99.90
16700;DHT22;8466;52.286;21.124;2024-01-27T16:08:41;3.20;99.90
16700;DHT22;8466;52.286;21.124;2024-01-27T16:26:40;2.90;99.90
16700;DHT22;8466;52.286;21.124;2024-01-27T16:29:11;2.90;99.90
16700;DHT22;8466;52.286;21.124;2024-01-27T16:31:45;2.80;99.90
16700;DHT22;8466;52.286;21.124;2024-01-27T16:35:06;2.80;99.90
16700;DHT22;8466;52.286;21.124;2024-01-27T16:37:40;2.70;99.90
16700;DHT22;8466;52.286;21.124;2024-01-27T16:40:25;2.60;99.90
16700;DHT22;8466;52.286;21.124;2024-01-27T16:43:15;2.70;99.90
16700;DHT22;8466;52.286;21.124;2024-01-27T16:45:53;2.60;99.90
16700;DHT22;8466;52.286;21.124;2024-01-27T16:48:32;2.60;99.90
16700;DHT22;8466;52.286;21.124;2024-01-27T16:51:06;2.60;99.90
16700;DHT22;8466;52.286;21.124;2024-01-27T16:57:26;2.70;99.90
16700;DHT22;8466;52.286;21.124;2024-01-27T16:59:58;2.60;99.90
16700;DHT22;8466;52.286;21.124;2024-01-27T17:05:33;2.70;99.90
16700;DHT22;8466;52.286;21.124;2024-01-27T17:08:23;2.70;99.90
16700;DHT22;8466;52.286;21.124;2024-01-27T17:11:19;2.50;99.90
16700;DHT22;8466;52.286;21.124;2024-01-27T17:13:48;2.60;99.90
16700;DHT22;8466;52.286;21.124;2024-01-27T17:16:19;2.50;99.90
16700;DHT22;8466;52.286;21.124;2024-01-27T17:18:54;2.50;99.90
16700;DHT22;8466;52.286;21.124;2024-01-27T17:21:29;2.50;99.90
16700;DHT22;8466;52.286;21.124;2024-01-27T17:24:23;2.50;99.90
16700;DHT22;8466;52.286;21.124;2024-01-27T17:48:36;2.50;99.90
16700;DHT22;8466;52.286;21.124;2024-01-27T17:51:09;2.40;99.90
16700;DHT22;8466;52.286;21.124;2024-01-27T17:53:50;2.60;99.90
16700;DHT22;8466;52.286;21.124;2024-01-27T18:11:04;2.70;99.90
16700;DHT22;8466;52.286;21.124;2024-01-27T18:13:51;2.60;99.90
16700;DHT22;8466;52.286;21.124;2024-01-27T18:16:26;2.60;99.90
16700;DHT22;8466;52.286;21.124;2024-01-27T18:19:09;2.60;99.90
16700;DHT22;8466;52.286;21.124;2024-01-27T18:21:54;2.70;99.90
16700;DHT22;8466;52.286;21.124;2024-01-27T18:32:52;2.70;99.90
16700;DHT22;8466;52.286;21.124;2024-01-27T18:57:59;3.00;99.90
16700;DHT22;8466;52.286;21.124;2024-01-27T19:04:17;3.10;99.90
16700;DHT22;8466;52.286;21.124;2024-01-27T19:06:54;3.10;99.90
16700;DHT22;8466;52.286;21.124;2024-01-27T19:09:23;3.10;99.90
16700;DHT22;8466;52.286;21.124;2024-01-27T19:19:56;3.10;99.90
16700;DHT22;8466;52.286;21.124;2024-01-27T19:22:29;3.10;99.90
16700;DHT22;8466;52.286;21.124;2024-01-27T19:24:58;3.10;99.90
16700;DHT22;8466;52.286;21.124;2024-01-27T19:27:29;3.10;99.90
16700;DHT22;8466;52.286;21.124;2024-01-27T19:30:03;3.10;99.90
16700;DHT22;8466;52.286;21.124;2024-01-27T19:32:34;3.20;99.90
16700;DHT22;8466;52.286;21.124;2024-01-27T19:35:06;3.20;99.90
16700;DHT22;8466;52.286;21.124;2024-01-27T19:37:37;3.20;99.90
16700;DHT22;8466;52.286;21.124;2024-01-27T19:40:07;3.10;99.90
16700;DHT22;8466;52.286;21.124;2024-01-27T19:43:05;3.10;99.90
16700;DHT22;8466;52.286;21.124;2024-01-27T19:45:42;3.00;99.90
16700;DHT22;8466;52.286;21.124;2024-01-27T19:48:26;3.20;99.90
16700;DHT22;8466;52.286;21.124;2024-01-27T19:50:58;3.20;99.90
16700;DHT22;8466;52.286;21.124;2024-01-27T19:53:34;3.10;99.90
16700;DHT22;8466;52.286;21.124;2024-01-27T19:57:39;3.20;99.90
16700;DHT22;8466;52.286;21.124;2024-01-27T19:59:31;3.20;99.90
16700;DHT22;8466;52.286;21.124;2024-01-27T20:02:03;3.20;99.90
16700;DHT22;8466;52.286;21.124;2024-01-27T20:09:02;3.20;99.90
16700;DHT22;8466;52.286;21.124;2024-01-27T20:22:44;3.30;99.90
16700;DHT22;8466;52.286;21.124;2024-01-27T21:04:05;3.20;99.90
16700;DHT22;8466;52.286;21.124;2024-01-27T21:06:55;3.30;99.90
16700;DHT22;8466;52.286;21.124;2024-01-27T21:09:54;3.30;99.90
16700;DHT22;8466;52.286;21.124;2024-01-27T21:12:25;3.30;99.90
16700;DHT22;8466;52.286;21.124;2024-01-27T21:15:04;3.40;99.90
16700;DHT22;8466;52.286;21.124;2024-01-27T21:18:22;3.30;99.90
16700;DHT22;8466;52.286;21.124;2024-01-27T21:20:55;3.60;99.90
16700;DHT22;8466;52.286;21.124;2024-01-27T21:27:25;3.50;99.90
16700;DHT22;8466;52.286;21.124;2024-01-27T21:30:19;3.40;99.90